Time;durP1;ratioP1;P1;durP2;ratioP2;P2;SDS_P1;SDS_P2;PMS_P1;PMS_P2;Temp;Humidity;BMP_temperature;BMP_pressure;BME280_temperature;BME280_humidity;BME280_pressure;Samples;Min_cycle;Max_cycle;Signal;HPM_P1;HPM_P2
2021/07/10 00:02:23;;;;;;;15.05;9.15;;;;;;;22.12;64.73;97276.66;1821830;77;25547;-88
2021/07/10 00:04:51;;;;;;;9.73;8.60;;;;;;;21.96;65.06;97255.91;1821898;77;25718;-87
2021/07/10 00:07:18;;;;;;;9.80;8.80;;;;;;;21.81;65.10;97232.94;1821948;77;25632;-85
2021/07/10 00:09:46;;;;;;;11.93;9.43;;;;;;;22.03;65.33;97284.72;1821809;77;27392;-88
2021/07/10 00:12:13;;;;;;;12.23;8.58;;;;;;;22.04;65.39;97291.03;1821828;78;26026;-89
2021/07/10 00:14:41;;;;;;;10.80;8.50;;;;;;;22.04;65.47;97302.03;1821550;78;25772;-84
2021/07/10 00:17:09;;;;;;;12.37;8.65;;;;;;;22.06;65.58;97317.69;1821861;78;25657;-82
2021/07/10 00:19:36;;;;;;;12.65;8.65;;;;;;;22.08;65.57;97322.34;1821824;77;25618;-86
2021/07/10 00:22:04;;;;;;;9.65;8.15;;;;;;;22.08;65.61;97325.09;1821851;78;27211;-87
2021/07/10 00:24:32;;;;;;;13.30;8.90;;;;;;;22.07;65.71;97328.40;1821835;77;25510;-86
2021/07/10 00:27:01;;;;;;;9.65;8.45;;;;;;;22.06;65.80;97330.05;1821926;78;25602;-87
2021/07/10 00:29:29;;;;;;;10.82;8.65;;;;;;;22.06;65.86;97325.37;1821739;77;25669;-87
2021/07/10 00:31:57;;;;;;;10.58;8.05;;;;;;;22.08;65.87;97336.09;1821791;78;25884;-86
2021/07/10 00:34:24;;;;;;;11.93;8.68;;;;;;;22.07;66.00;97349.02;1821826;78;28006;-86
2021/07/10 00:36:52;;;;;;;11.08;8.55;;;;;;;21.99;66.03;97350.16;1821728;78;25559;-84
2021/07/10 00:39:19;;;;;;;11.75;8.95;;;;;;;22.03;66.28;97349.86;1821908;77;25179;-84
2021/07/10 00:41:47;;;;;;;17.52;9.10;;;;;;;22.12;66.27;97341.27;1821926;78;26082;-87
2021/07/10 00:44:15;;;;;;;13.48;8.55;;;;;;;22.08;66.11;97357.53;1821950;78;25653;-88
2021/07/10 00:46:43;;;;;;;10.53;7.80;;;;;;;22.08;66.11;97357.53;1821773;78;27765;-86
2021/07/10 00:49:12;;;;;;;12.50;8.40;;;;;;;22.04;66.23;97357.00;1821732;78;25744;-89
2021/07/10 00:51:39;;;;;;;8.80;7.90;;;;;;;22.01;66.29;97360.31;1821883;77;25594;-87
2021/07/10 00:54:07;;;;;;;10.68;8.98;;;;;;;21.98;66.36;97352.62;1821764;78;25807;-88
2021/07/10 00:56:34;;;;;;;9.28;8.08;;;;;;;21.93;66.39;97345.23;1821915;78;25696;-88
2021/07/10 00:59:02;;;;;;;8.68;7.70;;;;;;;21.90;66.57;97337.00;1816790;78;27013;-88
2021/07/10 01:01:30;;;;;;;12.85;9.10;;;;;;;21.92;66.65;97338.91;1812541;79;25652;-89
2021/07/10 01:03:58;;;;;;;10.08;8.08;;;;;;;21.92;66.60;97347.16;1812478;78;25577;-88
2021/07/10 01:06:25;;;;;;;12.63;8.40;;;;;;;21.82;66.60;97348.61;1812520;79;25830;-89
2021/07/10 01:08:53;;;;;;;10.93;8.33;;;;;;;21.77;66.75;97347.25;1812621;78;25490;-86
2021/07/10 01:11:22;;;;;;;10.55;7.55;;;;;;;21.73;66.82;97357.19;1812562;79;27364;-89
2021/07/10 01:13:53;;;;;;;12.05;8.28;;;;;;;21.70;66.84;97356.37;1812402;79;26494;-88
2021/07/10 01:16:21;;;;;;;11.50;8.28;;;;;;;21.68;66.86;97354.45;1812666;77;25627;-88
2021/07/10 01:18:48;;;;;;;10.55;8.25;;;;;;;21.65;66.96;97367.38;1812641;77;25655;-89
2021/07/10 01:21:16;;;;;;;10.90;7.72;;;;;;;21.63;67.10;97370.95;1812513;79;25609;-89
2021/07/10 01:23:43;;;;;;;10.72;8.73;;;;;;;21.55;67.10;97381.99;1812778;79;27070;-89
2021/07/10 01:26:11;;;;;;;11.90;8.30;;;;;;;21.42;67.26;97389.46;1812338;77;25539;-88
2021/07/10 01:28:39;;;;;;;11.38;7.80;;;;;;;21.34;67.44;97396.92;1812567;79;25618;-87
2021/07/10 01:31:06;;;;;;;10.20;7.00;;;;;;;21.32;67.63;97395.00;1812428;79;25719;-88
2021/07/10 01:33:34;;;;;;;9.73;7.17;;;;;;;21.29;67.60;97392.81;1812705;79;26171;-86
2021/07/10 01:36:01;;;;;;;10.72;7.20;;;;;;;21.32;67.62;97383.20;1812762;77;27958;-89
2021/07/10 01:38:29;;;;;;;13.05;7.35;;;;;;;21.31;67.64;97379.63;1807319;79;25957;-87
2021/07/10 01:40:57;;;;;;;7.97;6.08;;;;;;;21.23;67.54;97374.73;1812648;77;26460;-85
2021/07/10 01:43:25;;;;;;;8.60;6.25;;;;;;;21.23;67.62;97372.53;1812600;79;26164;-84
2021/07/10 01:45:53;;;;;;;8.33;6.45;;;;;;;21.29;67.74;97372.77;1812617;79;25606;-87
2021/07/10 01:48:21;;;;;;;7.55;6.78;;;;;;;21.32;67.68;97366.72;1812747;78;27114;-85
2021/07/10 01:50:48;;;;;;;8.13;6.62;;;;;;;21.34;67.76;97350.25;1812660;77;25554;-87
2021/07/10 01:53:17;;;;;;;9.40;7.30;;;;;;;21.37;67.81;97347.49;1818215;77;25530;-87
2021/07/10 01:55:45;;;;;;;9.70;6.60;;;;;;;21.37;67.76;97344.20;1812477;79;26384;-87
2021/07/10 01:58:13;;;;;;;8.90;6.45;;;;;;;21.39;67.70;97344.71;1812502;78;25804;-89
2021/07/10 02:00:44;;;;;;;9.90;6.33;;;;;;;21.38;67.68;97329.89;1812331;79;27486;-88
2021/07/10 02:03:13;;;;;;;7.70;6.90;;;;;;;21.37;67.64;97326.35;1812723;77;25773;-86
2021/07/10 02:05:42;;;;;;;9.53;7.03;;;;;;;21.34;67.64;97304.13;1813135;77;25136;-87
2021/07/10 02:08:09;;;;;;;7.53;5.97;;;;;;;21.34;67.67;97305.49;1795140;77;25896;-87
2021/07/10 02:10:38;;;;;;;8.25;6.05;;;;;;;21.38;67.63;97309.30;1812194;79;25638;-84
2021/07/10 02:13:09;;;;;;;6.70;5.83;;;;;;;21.34;67.58;97315.10;1812290;77;27227;-86
2021/07/10 02:15:39;;;;;;;8.43;6.15;;;;;;;21.27;67.57;97325.55;1812830;79;32798;-83
2021/07/10 02:18:07;;;;;;;7.15;5.50;;;;;;;21.06;67.62;97335.77;1812978;78;25184;-88
2021/07/10 02:20:36;;;;;;;5.78;5.17;;;;;;;21.07;67.95;97349.22;1812851;77;25872;-82
2021/07/10 02:23:04;;;;;;;5.00;4.50;;;;;;;21.10;67.75;97351.41;1812651;77;25522;-82
2021/07/10 02:25:32;;;;;;;5.47;3.80;;;;;;;21.08;67.76;97355.53;1812673;77;27230;-82
2021/07/10 02:28:00;;;;;;;3.98;3.50;;;;;;;21.10;67.50;97344.55;1812660;79;25429;-82
2021/07/10 02:30:32;;;;;;;7.72;3.45;;;;;;;21.12;67.34;97346.47;1786742;76;26332;-84
2021/07/10 02:33:02;;;;;;;6.97;3.80;;;;;;;21.10;67.23;97345.92;1764574;80;25648;-81
2021/07/10 02:35:31;;;;;;;6.30;3.30;;;;;;;21.09;67.22;97344.83;1772998;80;26230;-81
2021/07/10 02:37:59;;;;;;;5.00;3.72;;;;;;;21.14;67.16;97350.28;1769780;79;27238;-88
2021/07/10 02:40:27;;;;;;;4.40;3.15;;;;;;;21.18;67.05;97344.51;1779863;78;25182;-83
2021/07/10 02:42:55;;;;;;;7.03;3.92;;;;;;;21.08;66.87;97353.61;1790589;78;25684;-88
2021/07/10 02:45:24;;;;;;;6.33;3.75;;;;;;;20.92;66.86;97358.86;1781922;78;26293;-81
2021/07/10 02:47:52;;;;;;;4.58;3.52;;;;;;;20.82;66.90;97353.41;1787052;78;25579;-80
2021/07/10 02:50:23;;;;;;;5.60;3.50;;;;;;;20.73;66.71;97348.22;1777435;79;28436;-80
2021/07/10 02:52:53;;;;;;;3.25;2.83;;;;;;;20.67;66.63;97330.94;1771808;79;25531;-85
2021/07/10 02:55:24;;;;;;;3.80;2.75;;;;;;;20.59;66.10;97321.09;1771966;80;25564;-80
2021/07/10 02:57:52;;;;;;;2.52;2.33;;;;;;;20.47;66.02;97322.22;1771184;80;25542;-81
2021/07/10 03:00:24;;;;;;;4.08;2.67;;;;;;;20.41;65.96;97316.45;1772688;79;25566;-84
2021/07/10 03:02:51;;;;;;;5.40;2.60;;;;;;;20.29;65.82;97310.95;1781974;78;27365;-82
2021/07/10 03:05:19;;;;;;;5.00;2.50;;;;;;;20.26;65.94;97307.41;1777558;78;26094;-87
2021/07/10 03:07:47;;;;;;;4.05;2.30;;;;;;;20.25;65.91;97308.50;1794592;78;25524;-81
2021/07/10 03:10:22;;;;;;;2.83;2.47;;;;;;;20.23;65.69;97302.47;1776502;80;25655;-82
2021/07/10 03:12:49;;;;;;;4.35;2.30;;;;;;;20.19;65.49;97313.16;1788082;79;25547;-88
2021/07/10 03:15:18;;;;;;;2.50;2.30;;;;;;;20.08;65.48;97306.04;1777177;79;27224;-82
2021/07/10 03:17:48;;;;;;;3.67;2.02;;;;;;;20.06;65.46;97312.34;1773679;78;25626;-82
2021/07/10 03:20:19;;;;;;;2.90;2.17;;;;;;;19.99;65.24;97315.36;1795595;79;25663;-85
2021/07/10 03:22:48;;;;;;;3.00;2.20;;;;;;;20.00;65.45;97314.81;1771829;80;25671;-85
2021/07/10 03:25:17;;;;;;;3.40;2.12;;;;;;;20.09;65.55;97315.91;1770973;78;25591;-80
2021/07/10 03:27:47;;;;;;;3.95;2.30;;;;;;;20.12;65.30;97313.99;1771273;80;27206;-80
2021/07/10 03:30:20;;;;;;;2.40;2.02;;;;;;;20.18;65.25;97318.91;1783395;78;25713;-86
2021/07/10 03:32:48;;;;;;;;;;;;;;;20.21;65.04;97321.11;1781170;80;25625;-83
2021/07/10 03:35:17;;;;;;;3.92;2.30;;;;;;;20.22;65.02;97324.95;1772060;80;25701;-79
2021/07/10 03:37:50;;;;;;;2.80;2.33;;;;;;;20.12;64.69;97326.33;1775018;80;25825;-84
2021/07/10 03:40:24;;;;;;;2.42;2.00;;;;;;;19.90;64.71;97323.03;1775828;80;27262;-81
2021/07/10 03:42:53;;;;;;;2.20;1.80;;;;;;;19.83;64.98;97329.31;1768867;80;25836;-84
2021/07/10 03:45:21;;;;;;;2.47;1.70;;;;;;;19.78;65.12;97328.23;1770920;80;25626;-79
2021/07/10 03:47:49;;;;;;;3.30;1.87;;;;;;;19.73;65.21;97335.05;1770352;80;25777;-80
2021/07/10 03:50:18;;;;;;;2.20;2.05;;;;;;;19.81;65.35;97330.12;1769718;80;25596;-83
2021/07/10 03:52:46;;;;;;;4.53;2.22;;;;;;;19.77;65.24;97338.91;1771893;80;27299;-80
2021/07/10 03:55:15;;;;;;;4.53;1.95;;;;;;;19.68;65.23;97346.56;1771596;80;25554;-79
2021/07/10 03:57:43;;;;;;;3.35;1.75;;;;;;;19.63;65.18;97350.65;1771960;80;26288;-81
2021/07/10 04:00:21;;;;;;;2.15;1.42;;;;;;;19.51;64.95;97347.33;1783308;79;26443;-81
2021/07/10 04:02:50;;;;;;;2.70;1.60;;;;;;;19.39;64.99;97345.62;1774940;80;25856;-84
2021/07/10 04:05:19;;;;;;;1.77;1.37;;;;;;;19.34;65.08;97358.45;1783837;79;27264;-80
2021/07/10 04:07:47;;;;;;;2.60;1.57;;;;;;;19.36;65.15;97360.39;1769698;78;25693;-80
2021/07/10 04:10:16;;;;;;;2.50;1.70;;;;;;;19.43;65.21;97363.72;1771680;80;25634;-82
2021/07/10 04:12:46;;;;;;;3.17;1.40;;;;;;;19.56;65.18;97369.26;1772502;78;25660;-80
2021/07/10 04:15:17;;;;;;;2.27;1.30;;;;;;;19.64;65.11;97365.98;1792895;78;25541;-79
2021/07/10 04:17:46;;;;;;;4.30;1.40;;;;;;;19.71;65.07;97372.84;1769437;78;27942;-78
2021/07/10 04:20:16;;;;;;;3.10;1.50;;;;;;;19.76;65.03;97381.08;1771782;80;25655;-79
2021/07/10 04:22:45;;;;;;;3.30;1.20;;;;;;;19.81;64.99;97379.42;1771775;80;25645;-80
2021/07/10 04:25:16;;;;;;;3.95;1.67;;;;;;;19.84;64.84;97383.00;1770530;80;25638;-78
2021/07/10 04:27:45;;;;;;;2.90;1.22;;;;;;;19.84;64.68;97381.63;1771127;80;25590;-78
2021/07/10 04:30:15;;;;;;;2.00;1.32;;;;;;;19.86;64.38;97391.77;1773246;79;28097;-79
2021/07/10 04:32:43;;;;;;;1.25;1.15;;;;;;;19.81;63.99;97389.01;1781991;78;25623;-79
2021/07/10 04:35:12;;;;;;;1.30;1.20;;;;;;;19.77;63.95;97395.05;1772507;78;25622;-79
2021/07/10 04:37:39;;;;;;;2.67;1.40;;;;;;;19.81;63.96;97390.38;1769759;80;25676;-80
2021/07/10 04:40:08;;;;;;;2.17;1.20;;;;;;;19.78;63.81;97391.77;1769637;80;25566;-79
2021/07/10 04:42:36;;;;;;;5.95;1.27;;;;;;;19.86;63.88;97386.30;1769826;79;27334;-79
2021/07/10 04:45:07;;;;;;;5.58;1.98;;;;;;;19.85;63.57;97392.31;1770771;80;25579;-80
2021/07/10 04:47:35;;;;;;;2.75;1.80;;;;;;;19.85;63.45;97398.34;1768761;80;25590;-80
2021/07/10 04:50:06;;;;;;;4.45;2.20;;;;;;;19.88;63.42;97397.80;1770732;80;26302;-79
2021/07/10 04:52:34;;;;;;;4.08;3.05;;;;;;;19.89;63.35;97395.34;1764442;80;25570;-79
2021/07/10 04:55:04;;;;;;;8.90;3.55;;;;;;;19.92;63.12;97396.19;1771749;80;28029;-78
2021/07/10 04:57:31;;;;;;;4.87;3.00;;;;;;;19.97;63.20;97395.63;1770950;78;25532;-80
2021/07/10 04:59:59;;;;;;;2.47;1.80;;;;;;;20.00;62.98;97391.53;1775477;78;25641;-80
2021/07/10 05:02:27;;;;;;;2.47;1.60;;;;;;;20.08;63.15;97406.05;1794464;79;25660;-81
2021/07/10 05:04:54;;;;;;;2.70;1.20;;;;;;;20.12;62.84;97403.05;1771770;80;25606;-83
2021/07/10 05:07:22;;;;;;;2.20;1.40;;;;;;;20.12;63.08;97398.39;1771605;80;27225;-81
2021/07/10 05:09:50;;;;;;;3.00;1.42;;;;;;;20.07;62.65;97397.00;1775305;78;25593;-80
2021/07/10 05:12:22;;;;;;;1.52;1.25;;;;;;;20.08;62.88;97397.28;1771697;80;25608;-79
2021/07/10 05:14:51;;;;;;;2.40;1.20;;;;;;;20.21;62.94;97395.92;1775520;80;26562;-80
2021/07/10 05:17:20;;;;;;;3.50;1.47;;;;;;;20.36;62.80;97395.97;1774267;78;26165;-80
2021/07/10 05:19:49;;;;;;;1.40;0.90;;;;;;;20.41;62.18;97396.50;1776284;80;27314;-83
2021/07/10 05:22:17;;;;;;;3.72;1.00;;;;;;;20.41;61.93;97394.58;1771678;80;25568;-84
2021/07/10 05:24:45;;;;;;;1.17;0.90;;;;;;;20.41;61.78;97403.36;1772971;79;25791;-80
2021/07/10 05:27:13;;;;;;;0.70;0.70;;;;;;;20.44;61.74;97403.64;1775499;80;25646;-83
2021/07/10 05:29:42;;;;;;;1.30;0.90;;;;;;;20.52;61.63;97411.06;1771618;78;25673;-80
2021/07/10 05:32:09;;;;;;;1.70;0.70;;;;;;;20.51;61.33;97408.86;1786934;77;28017;-83
2021/07/10 05:34:37;;;;;;;2.33;0.80;;;;;;;20.48;61.44;97408.86;1778617;78;25617;-82
2021/07/10 05:37:06;;;;;;;1.80;0.90;;;;;;;20.56;61.38;97414.33;1771753;80;25533;-81
2021/07/10 05:39:33;;;;;;;0.85;0.70;;;;;;;20.64;61.18;97413.80;1771545;78;26581;-84
2021/07/10 05:42:01;;;;;;;1.25;1.02;;;;;;;20.68;60.80;97415.41;1768801;80;25729;-82
2021/07/10 05:44:29;;;;;;;1.67;1.30;;;;;;;20.66;61.00;97420.34;1770874;80;28091;-84
2021/07/10 05:46:56;;;;;;;4.22;2.50;;;;;;;20.62;61.01;97423.39;1756165;80;25663;-80
2021/07/10 05:49:24;;;;;;;6.55;3.10;;;;;;;20.58;61.07;97423.11;1771764;80;25708;-85
2021/07/10 05:51:51;;;;;;;4.33;2.40;;;;;;;20.57;61.05;97420.63;1771673;80;26470;-85
2021/07/10 05:54:19;;;;;;;3.12;2.00;;;;;;;20.57;61.16;97427.49;1791106;77;25583;-80
2021/07/10 05:56:47;;;;;;;2.60;2.02;;;;;;;20.66;61.43;97427.20;1769995;79;27886;-81
2021/07/10 05:59:14;;;;;;;2.87;1.32;;;;;;;20.78;61.52;97424.45;1771642;79;25931;-86
2021/07/10 06:01:42;;;;;;;3.33;2.33;;;;;;;20.89;61.41;97424.47;1772124;79;26259;-79
2021/07/10 06:04:09;;;;;;;1.95;0.90;;;;;;;20.84;60.89;97426.11;1769750;80;25713;-84
2021/07/10 06:06:37;;;;;;;1.95;1.10;;;;;;;20.82;61.08;97426.10;1770427;80;25145;-84
2021/07/10 06:09:05;;;;;;;1.47;1.00;;;;;;;20.96;61.21;97423.06;1771422;79;27173;-83
2021/07/10 06:11:32;;;;;;;1.80;1.17;;;;;;;21.09;61.12;97418.38;1770597;80;25177;-80
2021/07/10 06:14:01;;;;;;;1.82;1.00;;;;;;;21.14;60.58;97425.20;1771139;79;25630;-82
2021/07/10 06:16:28;;;;;;;1.35;1.22;;;;;;;21.08;60.33;97415.36;1772044;80;25840;-82
2021/07/10 06:18:56;;;;;;;1.32;1.15;;;;;;;21.17;60.16;97425.20;1771972;80;25544;-85
2021/07/10 06:21:23;;;;;;;1.70;0.90;;;;;;;21.19;60.11;97426.61;1769858;80;27219;-84
2021/07/10 06:23:52;;;;;;;1.15;0.80;;;;;;;21.24;60.01;97423.04;1770101;80;25579;-83
2021/07/10 06:26:20;;;;;;;1.00;0.90;;;;;;;21.26;59.76;97418.06;1771568;80;25852;-85
2021/07/10 06:28:49;;;;;;;2.27;1.12;;;;;;;21.29;59.53;97426.30;1780450;78;26530;-85
2021/07/10 06:31:18;;;;;;;3.62;1.15;;;;;;;21.28;59.30;97425.48;1769488;78;25528;-82
2021/07/10 06:33:46;;;;;;;1.35;1.00;;;;;;;21.32;59.27;97429.87;1786178;78;27339;-80
2021/07/10 06:36:15;;;;;;;2.17;1.00;;;;;;;21.34;58.85;97431.23;1771892;80;25690;-83
2021/07/10 06:38:42;;;;;;;3.33;1.12;;;;;;;21.29;58.98;97435.36;1772082;80;25642;-84
2021/07/10 06:41:10;;;;;;;0.85;0.80;;;;;;;21.29;59.00;97429.05;1771920;78;25827;-82
2021/07/10 06:43:37;;;;;;;1.42;0.90;;;;;;;21.34;58.97;97432.61;1771914;78;25541;-86
2021/07/10 06:46:07;;;;;;;1.00;0.90;;;;;;;21.36;58.62;97434.53;1771854;79;28236;-83
2021/07/10 06:48:36;;;;;;;2.58;0.90;;;;;;;21.38;58.47;97431.48;1771806;78;25550;-84
2021/07/10 06:51:04;;;;;;;1.37;0.85;;;;;;;21.47;58.46;97431.20;1775067;79;25802;-84
2021/07/10 06:53:34;;;;;;;3.12;1.07;;;;;;;21.48;58.45;97432.84;1769525;80;25886;-83
2021/07/10 06:56:03;;;;;;;1.70;0.88;;;;;;;21.49;58.31;97429.78;1772000;80;26158;-82
2021/07/10 06:58:30;;;;;;;1.47;0.90;;;;;;;21.54;58.06;97431.70;1769869;80;27399;-87
2021/07/10 07:00:58;;;;;;;0.90;0.85;;;;;;;21.54;57.85;97431.16;1771804;80;25547;-83
2021/07/10 07:03:25;;;;;;;1.05;0.90;;;;;;;21.37;58.00;97428.49;1771888;79;25630;-83
2021/07/10 07:05:53;;;;;;;2.05;1.05;;;;;;;21.37;58.07;97425.20;1775701;79;25777;-85
2021/07/10 07:08:21;;;;;;;2.08;1.00;;;;;;;21.45;57.91;97429.27;1775834;80;25637;-82
2021/07/10 07:10:48;;;;;;;1.05;0.90;;;;;;;21.46;57.76;97425.43;1774412;78;27286;-83
2021/07/10 07:13:16;;;;;;;4.25;1.17;;;;;;;21.44;57.81;97426.25;1771730;80;25820;-83
2021/07/10 07:15:44;;;;;;;3.85;0.98;;;;;;;21.37;57.87;97421.62;1771550;78;25579;-82
2021/07/10 07:18:15;;;;;;;5.90;1.05;;;;;;;21.32;57.74;97417.52;1771779;80;25729;-86
2021/07/10 07:20:45;;;;;;;2.67;1.10;;;;;;;21.40;57.91;97415.55;1771678;80;25701;-84
2021/07/10 07:23:12;;;;;;;0.90;0.90;;;;;;;21.40;58.21;97418.30;1772176;80;27302;-84
2021/07/10 07:25:40;;;;;;;1.65;0.90;;;;;;;21.45;58.40;97421.03;1771925;80;25769;-87
2021/07/10 07:28:07;;;;;;;1.60;0.80;;;;;;;21.60;58.23;97420.98;1771952;80;25598;-81
2021/07/10 07:30:35;;;;;;;1.50;1.00;;;;;;;21.70;57.83;97422.30;1771876;80;25741;-85
2021/07/10 07:33:04;;;;;;;1.57;1.10;;;;;;;21.73;57.72;97425.05;1789537;78;25521;-84
2021/07/10 07:35:32;;;;;;;1.60;1.00;;;;;;;21.76;57.62;97422.53;1775437;80;27517;-82
2021/07/10 07:38:01;;;;;;;1.20;1.10;;;;;;;21.84;57.56;97424.70;1798652;78;25579;-82
2021/07/10 07:40:28;;;;;;;1.67;0.90;;;;;;;21.86;57.49;97422.47;1770125;80;25620;-83
2021/07/10 07:42:56;;;;;;;2.25;0.88;;;;;;;21.92;57.24;97426.85;1770416;80;25758;-82
2021/07/10 07:45:24;;;;;;;3.52;1.00;;;;;;;22.11;56.88;97417.96;1771713;80;25638;-84
2021/07/10 07:47:51;;;;;;;2.02;1.02;;;;;;;22.09;57.24;97407.83;1774165;78;26807;-84
2021/07/10 07:50:20;;;;;;;2.95;1.00;;;;;;;22.09;57.24;97407.83;1784121;79;25555;-88
2021/07/10 07:52:48;;;;;;;1.90;1.32;;;;;;;22.15;57.08;97403.92;1770210;80;25633;-85
2021/07/10 07:55:16;;;;;;;0.95;0.95;;;;;;;22.32;56.72;97422.23;1771786;80;25759;-83
2021/07/10 07:57:44;;;;;;;1.50;0.80;;;;;;;22.28;56.85;97400.53;1771771;78;25500;-81
2021/07/10 08:00:20;;;;;;;1.17;1.02;;;;;;;22.61;56.58;97416.76;1775708;80;27368;-86
2021/07/10 08:02:48;;;;;;;3.37;1.20;;;;;;;22.80;56.79;97425.17;1756744;80;25835;-87
2021/07/10 08:05:17;;;;;;;2.77;1.20;;;;;;;23.17;56.53;97415.71;1773902;79;25626;-87
2021/07/10 08:07:44;;;;;;;1.00;0.90;;;;;;;23.68;56.03;97416.49;1771609;78;26507;-83
2021/07/10 08:10:15;;;;;;;1.20;1.10;;;;;;;24.10;55.40;97428.06;1774988;79;25643;-86
2021/07/10 08:12:47;;;;;;;1.32;0.98;;;;;;;24.48;55.01;97425.31;1741086;79;46826;-83
2021/07/10 08:15:14;;;;;;;1.07;0.98;;;;;;;25.00;54.36;97432.45;1771423;80;25805;-83
2021/07/10 08:17:45;;;;;;;4.15;0.95;;;;;;;25.50;53.77;97422.38;1771371;80;26022;-82
2021/07/10 08:20:15;;;;;;;3.65;0.98;;;;;;;25.88;52.67;97424.37;1782949;79;25921;-82
2021/07/10 08:22:45;;;;;;;1.12;1.00;;;;;;;26.24;52.13;97420.81;1778333;78;26240;-88
2021/07/10 08:25:14;;;;;;;4.12;1.10;;;;;;;26.56;51.19;97423.98;1775328;79;27302;-84
2021/07/10 08:27:43;;;;;;;2.47;0.98;;;;;;;26.74;51.01;97423.78;1780685;78;26225;-84
2021/07/10 08:30:17;;;;;;;1.98;1.30;;;;;;;27.04;50.30;97418.63;1771814;80;25614;-84
2021/07/10 08:32:45;;;;;;;1.47;0.90;;;;;;;27.26;49.50;97413.04;1774563;78;28659;-84
2021/07/10 08:35:15;;;;;;;2.05;1.00;;;;;;;27.48;49.26;97417.69;1777916;80;25531;-84
2021/07/10 08:37:43;;;;;;;1.17;0.80;;;;;;;27.48;49.04;97420.47;1779332;79;27233;-84
2021/07/10 08:40:12;;;;;;;3.60;1.50;;;;;;;27.63;48.06;97413.70;1802604;78;25733;-89
2021/07/10 08:42:40;;;;;;;1.25;0.90;;;;;;;27.39;47.75;97424.59;1780277;80;25660;-82
2021/07/10 08:45:11;;;;;;;1.30;0.90;;;;;;;27.52;47.82;97415.36;1776081;79;26171;-84
2021/07/10 08:47:42;;;;;;;1.60;1.40;;;;;;;27.86;47.78;97423.55;1780546;80;25682;-85
2021/07/10 08:50:16;;;;;;;1.15;0.93;;;;;;;28.16;46.99;97418.45;1780355;79;28154;-84
2021/07/10 08:52:44;;;;;;;1.17;0.90;;;;;;;28.49;46.65;97421.62;1780277;79;25536;-86
2021/07/10 08:55:14;;;;;;;2.20;0.90;;;;;;;28.82;46.05;97416.39;1790021;78;25165;-87
2021/07/10 08:57:43;;;;;;;1.60;1.12;;;;;;;29.03;45.50;97409.56;1800597;78;26479;-85
2021/07/10 09:00:16;;;;;;;1.00;0.80;;;;;;;29.14;45.00;97414.19;1783328;80;25655;-87
2021/07/10 09:02:48;;;;;;;4.45;1.20;;;;;;;29.28;44.28;97414.80;1783944;78;27248;-90
2021/07/10 09:05:16;;;;;;;1.40;1.07;;;;;;;29.43;43.95;97408.73;1781176;79;25660;-88
2021/07/10 09:08:16;;;;;;;2.27;1.20;;;;;;;29.45;43.48;97407.83;1787845;78;26051;-85
2021/07/10 09:10:53;;;;;;;1.82;1.10;;;;;;;29.61;43.48;97410.27;1725503;81;25889;-86
2021/07/10 09:13:35;;;;;;;3.05;1.20;;;;;;;29.74;42.82;97410.61;1736487;82;25760;-86
2021/07/10 09:16:12;;;;;;;2.75;1.30;;;;;;;29.89;42.73;97407.02;1736557;81;26934;-88
2021/07/10 09:18:54;;;;;;;1.20;1.10;;;;;;;29.92;42.21;97408.56;1736422;82;25615;-90
2021/07/10 09:21:46;;;;;;;1.02;0.98;;;;;;;30.10;42.68;97398.14;1736404;81;25743;-82
2021/07/10 09:24:36;;;;;;;2.50;1.20;;;;;;;30.27;41.93;97402.20;1736390;81;26437;-84
2021/07/10 09:27:09;;;;;;;1.40;1.30;;;;;;;30.49;41.64;97403.02;1731270;81;25549;-86
2021/07/10 09:29:43;;;;;;;2.52;1.20;;;;;;;30.20;40.69;97393.56;1736704;81;26698;-85
2021/07/10 09:32:19;;;;;;;1.30;1.20;;;;;;;29.93;40.90;97401.03;1734319;81;25748;-86
2021/07/10 09:34:57;;;;;;;1.40;1.30;;;;;;;29.64;40.81;97400.45;1717592;82;25605;-84
2021/07/10 09:37:32;;;;;;;1.15;1.10;;;;;;;29.29;41.00;97407.52;1712190;83;25816;-86
2021/07/10 09:40:07;;;;;;;1.22;1.12;;;;;;;29.02;41.25;97406.53;1716731;83;25672;-83
2021/07/10 09:42:42;;;;;;;4.78;1.05;;;;;;;28.72;41.49;97408.95;1769453;78;27324;-82
2021/07/10 09:45:24;;;;;;;7.92;1.22;;;;;;;28.45;42.47;97400.38;1780199;79;25645;-83
2021/07/10 09:47:51;;;;;;;3.05;1.42;;;;;;;28.47;43.11;97405.05;1780971;80;25591;-88
2021/07/10 09:50:26;;;;;;;2.92;1.20;;;;;;;28.51;42.92;97411.55;1778734;79;25835;-89
2021/07/10 09:52:53;;;;;;;3.58;1.07;;;;;;;28.28;43.04;97416.45;1775181;80;25586;-92
2021/07/10 09:55:28;;;;;;;2.17;1.02;;;;;;;28.09;43.37;97408.98;1749790;80;27463;-91
2021/07/10 09:57:56;;;;;;;2.35;1.10;;;;;;;27.92;43.51;97400.05;1779414;79;25742;-89
2021/07/10 10:00:25;;;;;;;2.20;1.40;;;;;;;27.66;43.89;97401.37;1780333;79;25566;-84
2021/07/10 10:02:56;;;;;;;2.60;1.37;;;;;;;27.54;44.10;97409.46;1781231;79;25686;-90
2021/07/10 10:05:40;;;;;;;1.60;1.30;;;;;;;27.64;44.84;97402.86;1785435;78;25594;-84
2021/07/10 10:08:05;;;;;;;1.02;1.00;;;;;;;27.95;44.62;97398.03;1785485;78;27472;-84
2021/07/10 10:10:44;;;;;;;1.87;1.20;;;;;;;28.28;44.54;97399.23;1794173;78;25655;-89
2021/07/10 10:13:14;;;;;;;2.70;1.20;;;;;;;28.61;44.26;97402.34;1764728;80;25734;-91
2021/07/10 10:15:51;;;;;;;4.45;1.45;;;;;;;28.74;43.75;97399.11;1781445;78;26374;-89
2021/07/10 10:18:23;;;;;;;1.45;1.12;;;;;;;28.87;44.06;97389.81;1778057;80;25141;-90
2021/07/10 10:20:51;;;;;;;;;;;;;;;29.09;43.34;97400.48;1806382;78;27302;-84
2021/07/10 10:23:20;;;;;;;1.05;1.00;;;;;;;28.91;42.91;97406.07;1780691;80;25718;-92
2021/07/10 10:25:49;;;;;;;2.42;1.12;;;;;;;28.64;43.20;97396.68;1776185;80;25638;-87
2021/07/10 10:28:19;;;;;;;1.20;1.10;;;;;;;28.52;43.25;97404.86;1807184;77;25677;-89
2021/07/10 10:30:56;;;;;;;1.62;1.37;;;;;;;28.42;43.29;97403.80;1793415;78;25649;-89
2021/07/10 10:33:29;;;;;;;1.35;1.10;;;;;;;28.64;43.50;97412.77;1760953;80;28030;-90
2021/07/10 10:35:56;;;;;;;1.00;1.00;;;;;;;28.74;43.55;97406.06;1769652;80;25685;-87
2021/07/10 10:38:24;;;;;;;2.35;1.10;;;;;;;28.74;42.96;97406.06;1781042;79;25626;-90
2021/07/10 10:40:54;;;;;;;4.95;1.25;;;;;;;28.18;42.59;97410.66;1788129;79;25833;-83
2021/07/10 10:43:25;;;;;;;2.62;1.20;;;;;;;27.88;43.54;97407.41;1771961;78;25521;-90
2021/07/10 10:45:52;;;;;;;1.87;1.00;;;;;;;27.76;43.48;97408.61;1771786;80;27259;-85
2021/07/10 10:48:37;;;;;;;2.12;1.10;;;;;;;27.55;43.36;97406.41;1772013;79;25551;-93
2021/07/10 10:51:24;;;;;;;4.50;1.27;;;;;;;27.18;43.19;97408.25;1770928;80;25579;-90
2021/07/10 10:53:54;;;;;;;6.33;1.10;;;;;;;26.56;43.91;97412.34;1747155;80;25979;-86
2021/07/10 10:56:36;;;;;;;1.72;1.27;;;;;;;26.13;44.58;97407.22;1740827;80;25677;-89
2021/07/10 10:59:34;;;;;;;4.33;1.20;;;;;;;26.05;45.30;97412.12;1772379;80;28121;-89
2021/07/10 11:02:03;;;;;;;1.37;1.27;;;;;;;25.95;45.53;97416.50;1771068;80;25635;-80
2021/07/10 11:04:57;;;;;;;30.32;2.17;;;;;;;25.94;46.22;97410.71;1771835;79;25186;-91
2021/07/10 11:07:35;;;;;;;2.92;1.20;;;;;;;25.98;46.30;97419.19;1775727;80;26379;-94
2021/07/10 11:10:10;;;;;;;1.57;1.40;;;;;;;25.78;46.24;97419.08;1760214;80;26221;-86
2021/07/10 11:12:54;;;;;;;3.60;1.37;;;;;;;25.55;46.61;97417.32;1716050;83;27996;-86
2021/07/10 11:15:40;;;;;;;1.60;1.30;;;;;;;25.57;47.46;97410.92;1742135;81;25656;-82
2021/07/10 11:18:09;;;;;;;3.10;1.35;;;;;;;26.04;48.02;97408.28;1698442;83;25645;-82
2021/07/10 11:20:46;;;;;;;5.45;1.55;;;;;;;26.41;46.94;97401.07;1742189;82;26558;-85
2021/07/10 11:23:33;;;;;;;4.67;1.55;;;;;;;26.73;46.69;97405.53;1716151;82;26203;-88
2021/07/10 11:26:19;;;;;;;4.95;1.42;;;;;;;27.08;47.00;97397.45;1715911;82;27941;-89
2021/07/10 11:28:52;;;;;;;1.70;1.22;;;;;;;27.42;46.23;97404.53;1742282;81;25695;-90
2021/07/10 11:31:25;;;;;;;2.20;1.42;;;;;;;27.41;46.06;97400.13;1719061;82;26323;-88
2021/07/10 11:34:09;;;;;;;2.42;1.10;;;;;;;27.41;45.62;97391.02;1748270;81;26442;-84
2021/07/10 11:36:53;;;;;;;1.57;1.40;;;;;;;27.29;45.21;97390.20;1739192;81;25604;-88
2021/07/10 11:39:33;;;;;;;2.98;1.50;;;;;;;27.22;45.54;97392.63;1739532;82;28102;-81
2021/07/10 11:42:23;;;;;;;2.15;1.20;;;;;;;27.06;45.41;97397.77;1755455;80;25741;-83
2021/07/10 11:45:04;;;;;;;3.40;1.25;;;;;;;26.97;45.59;97401.06;1755971;80;25585;-83
2021/07/10 11:47:37;;;;;;;8.88;1.90;;;;;;;26.80;45.42;97390.69;1737331;82;26600;-82
2021/07/10 11:50:13;;;;;;;2.20;1.42;;;;;;;26.47;45.51;97397.03;1756337;80;26091;-84